Time;durP1;ratioP1;P1;durP2;ratioP2;P2;SDS_P1;SDS_P2;PMS_P1;PMS_P2;Temp;Humidity;BMP_temperature;BMP_pressure;BME280_temperature;BME280_humidity;BME280_pressure;Samples;Min_cycle;Max_cycle;Signal;HPM_P1;HPM_P2
2023/04/30 00:01:23;;;;;;;;;;;;;;;16.63;100.00;99459.16;5065324;28;19932;-80
2023/04/30 00:03:49;;;;;;;;;;;;;;;16.65;100.00;99457.13;5060678;28;19924;-81
2023/04/30 00:06:14;;;;;;;;;;;;;;;16.65;100.00;99451.81;5060126;28;20415;-80
2023/04/30 00:08:40;;;;;;;;;;;;;;;16.68;100.00;99456.75;5043070;28;19921;-81
2023/04/30 00:11:05;;;;;;;;;;;;;;;16.69;100.00;99450.41;5064490;28;20292;-80
2023/04/30 00:13:30;;;;;;;;;;;;;;;16.69;100.00;99442.41;5064202;28;20388;-81
2023/04/30 00:15:56;;;;;;;;;;;;;;;16.69;100.00;99439.75;5061097;28;19927;-80
2023/04/30 00:18:22;;;;;;;;;;;;;;;16.67;100.00;99441.78;5063715;28;20373;-81
2023/04/30 00:20:50;;;;;;;;;;;;;;;16.66;100.00;99445.47;5065619;28;19935;-80
2023/04/30 00:23:16;;;;;;;;;;;;;;;16.68;100.00;99435.44;5063093;28;19920;-82
2023/04/30 00:25:41;;;;;;;;;;;;;;;16.69;100.00;99437.09;5062115;28;20436;-82
2023/04/30 00:28:06;;;;;;;;;;;;;;;16.70;100.00;99438.75;5067313;22;19990;-79
2023/04/30 00:30:32;;;;;;;;;;;;;;;16.72;100.00;99442.06;5042228;28;19920;-79
2023/04/30 00:32:57;;;;;;;;;;;;;;;16.69;100.00;99446.91;5037115;28;20003;-79
2023/04/30 00:35:23;;;;;;;;;;;;;;;16.72;100.00;99442.06;5040284;28;19928;-79
2023/04/30 00:37:48;;;;;;;;;;;;;;;16.74;100.00;99447.19;5041075;28;19924;-79
2023/04/30 00:40:13;;;;;;;;;;;;;;;16.73;100.00;99445.53;5042681;28;20361;-77
2023/04/30 00:42:39;;;;;;;;;;;;;;;16.75;100.00;99440.84;5039414;28;19921;-78
2023/04/30 00:45:04;;;;;;;;;;;;;;;16.75;100.00;99447.00;5039930;28;19928;-77
2023/04/30 00:47:30;;;;;;;;;;;;;;;16.74;100.00;99442.69;5031010;28;19921;-78
2023/04/30 00:49:56;;;;;;;;;;;;;;;16.78;100.00;99438.66;5040655;28;19948;-78
2023/04/30 00:52:22;;;;;;;;;;;;;;;16.81;100.00;99439.28;5042155;28;19928;-78
2023/04/30 00:54:47;;;;;;;;;;;;;;;16.81;100.00;99429.47;5041374;28;19933;-79
2023/04/30 00:57:13;;;;;;;;;;;;;;;16.73;100.00;99430.38;5043124;28;19924;-79
2023/04/30 00:59:38;;;;;;;;;;;;;;;16.77;100.00;99423.69;5020829;28;19924;-78
2023/04/30 01:02:04;;;;;;;;;;;;;;;16.74;100.00;99424.03;5023694;28;20301;-78
2023/04/30 01:04:29;;;;;;;;;;;;;;;16.66;100.00;99426.81;5039182;28;19967;-78
2023/04/30 01:06:55;;;;;;;;;;;;;;;16.66;100.00;99426.81;5041194;28;19929;-78
2023/04/30 01:09:20;;;;;;;;;;;;;;;16.67;100.00;99433.78;5041016;28;20341;-79
2023/04/30 01:11:46;;;;;;;;;;;;;;;16.65;100.00;99438.47;5041347;28;20019;-79
2023/04/30 01:14:41;;;;;;;;;;;;;;;16.63;100.00;99435.16;5040151;28;20403;-79
2023/04/30 01:17:32;;;;;;;;;;;;;;;16.62;100.00;99430.84;5010228;28;20236;-78
2023/04/30 01:19:58;;;;;;;;;;;;;;;16.61;100.00;99434.50;5038943;28;20012;-78
2023/04/30 01:22:26;;;;;;;;;;;;;;;16.62;100.00;99433.50;5043480;28;20028;-77
2023/04/30 01:25:11;;;;;;;;;;;;;;;16.60;100.00;99430.22;5039856;28;19982;-78
2023/04/30 01:27:55;;;;;;;;;;;;;;;16.51;100.00;99439.25;5041115;28;19922;-77
2023/04/30 01:30:22;;;;;;;;;;;;;;;16.52;100.00;99434.78;5022985;28;20034;-79
2023/04/30 01:32:47;;;;;;;;;;;;;;;16.50;100.00;99432.28;5038339;28;19921;-80
2023/04/30 01:35:13;;;;;;;;;;;;;;;16.49;100.00;99435.97;5036573;28;20067;-80
2023/04/30 01:37:50;;;;;;;;;;;;;;;16.53;100.00;99447.91;5040622;28;19921;-79
2023/04/30 01:40:18;;;;;;;;;;;;;;;16.55;100.00;99437.88;5039527;28;19927;-79
2023/04/30 01:43:07;;;;;;;;;;;;;;;16.56;100.00;99442.19;5041309;28;20015;-79
2023/04/30 01:45:46;;;;;;;;;;;;;;;16.54;100.00;99443.41;5039913;28;19920;-79
2023/04/30 01:48:12;;;;;;;;;;;;;;;16.53;100.00;99441.75;5041247;28;19921;-79
2023/04/30 01:50:42;;;;;;;;;;;;;;;16.51;100.00;99444.59;5042244;28;19965;-79
2023/04/30 01:53:11;;;;;;;;;;;;;;;16.50;100.00;99445.59;5010705;28;19975;-79
2023/04/30 01:55:44;;;;;;;;;;;;;;;16.51;100.00;99449.91;5041677;28;20007;-79
2023/04/30 01:58:11;;;;;;;;;;;;;;;16.51;100.00;99444.59;5033020;28;19952;-78
2023/04/30 02:00:36;;;;;;;;;;;;;;;16.50;100.00;99442.94;5035842;28;20270;-79
2023/04/30 02:03:02;;;;;;;;;;;;;;;16.51;100.00;99449.09;5035107;28;20024;-79
2023/04/30 02:05:28;;;;;;;;;;;;;;;16.45;100.00;99449.81;5022007;28;19921;-78
2023/04/30 02:07:54;;;;;;;;;;;;;;;16.45;100.00;99444.50;5041111;28;19952;-78
2023/04/30 02:10:21;;;;;;;;;;;;;;;16.44;100.00;99441.00;5036567;28;20349;-80
2023/04/30 02:12:46;;;;;;;;;;;;;;;16.42;100.00;99435.06;5038146;28;19932;-77
2023/04/30 02:15:12;;;;;;;;;;;;;;;16.44;100.00;99437.50;5023419;28;19925;-77
2023/04/30 02:17:39;;;;;;;;;;;;;;;16.43;100.00;99439.38;5037743;28;19987;-78
2023/04/30 02:20:06;;;;;;;;;;;;;;;16.40;100.00;99437.06;5022153;28;20388;-77
2023/04/30 02:22:31;;;;;;;;;;;;;;;16.41;100.00;99444.03;5041681;28;19932;-78
2023/04/30 02:24:56;;;;;;;;;;;;;;;16.42;100.00;99445.72;5038348;28;19929;-78
2023/04/30 02:27:23;;;;;;;;;;;;;;;16.39;100.00;99440.72;5040378;28;19921;-78
2023/04/30 02:29:48;;;;;;;;;;;;;;;16.43;100.00;99436.72;5033259;28;20346;-78
2023/04/30 02:32:14;;;;;;;;;;;;;;;16.43;100.00;99443.88;5039615;28;20000;-78
2023/04/30 02:34:40;;;;;;;;;;;;;;;16.39;100.00;99440.72;5036067;28;19922;-78
2023/04/30 02:37:05;;;;;;;;;;;;;;;16.39;100.00;99435.41;5040469;28;19925;-77
2023/04/30 02:39:31;;;;;;;;;;;;;;;16.37;100.00;99448.91;5040141;28;20020;-78
2023/04/30 02:41:56;;;;;;;;;;;;;;;16.40;100.00;99447.72;5040853;28;19924;-77
2023/04/30 02:44:21;;;;;;;;;;;;;;;16.42;100.00;99445.72;5037806;28;19916;-78
2023/04/30 02:46:47;;;;;;;;;;;;;;;16.42;100.00;99445.72;5037555;28;20288;-78
2023/04/30 02:49:12;;;;;;;;;;;;;;;16.41;100.00;99443.22;5021070;28;20373;-78
2023/04/30 02:51:38;;;;;;;;;;;;;;;16.43;100.00;99447.38;5038686;28;19933;-78
2023/04/30 02:54:03;;;;;;;;;;;;;;;16.42;100.00;99445.72;5023968;28;19942;-79
2023/04/30 02:56:28;;;;;;;;;;;;;;;16.41;100.00;99448.53;5041231;28;19948;-78
2023/04/30 02:58:54;;;;;;;;;;;;;;;16.40;100.00;99437.06;5038442;28;19921;-78
2023/04/30 03:01:19;;;;;;;;;;;;;;;16.40;100.00;99442.38;5039224;28;20306;-80
2023/04/30 03:03:44;;;;;;;;;;;;;;;16.39;100.00;99440.72;5038640;28;20284;-80
2023/04/30 03:06:10;;;;;;;;;;;;;;;16.40;100.00;99439.72;5040291;28;20406;-80
2023/04/30 03:08:35;;;;;;;;;;;;;;;16.42;100.00;99437.72;5036947;28;19921;-79
2023/04/30 03:11:00;;;;;;;;;;;;;;;16.44;100.00;99437.50;5036339;28;19931;-80
2023/04/30 03:13:26;;;;;;;;;;;;;;;16.42;100.00;99424.41;5039951;28;20266;-80
2023/04/30 03:15:58;;;;;;;;;;;;;;;16.42;100.00;99420.91;5040940;28;19925;-80
2023/04/30 03:18:23;;;;;;;;;;;;;;;16.42;100.00;99421.75;5025634;28;20012;-79
2023/04/30 03:20:49;;;;;;;;;;;;;;;16.43;100.00;99422.56;5040779;28;20012;-79
2023/04/30 03:23:14;;;;;;;;;;;;;;;16.43;100.00;99426.06;5025707;28;20016;-78
2023/04/30 03:25:40;;;;;;;;;;;;;;;16.42;100.00;99427.06;5019043;28;20329;-79
2023/04/30 03:28:05;;;;;;;;;;;;;;;16.38;100.00;99428.41;5038414;28;19964;-78
2023/04/30 03:30:30;;;;;;;;;;;;;;;16.39;100.00;99430.06;5038540;28;19977;-80
2023/04/30 03:32:56;;;;;;;;;;;;;;;16.33;100.00;99425.47;5039564;28;19921;-80
2023/04/30 03:35:21;;;;;;;;;;;;;;;16.19;100.00;99423.66;5041385;28;19924;-80
2023/04/30 03:37:46;;;;;;;;;;;;;;;16.20;100.00;99422.66;5038456;28;19959;-81
2023/04/30 03:40:12;;;;;;;;;;;;;;;16.22;100.00;99423.28;5040457;28;19974;-81
2023/04/30 03:42:37;;;;;;;;;;;;;;;16.20;100.00;99418.13;5040894;28;20018;-80
2023/04/30 03:45:03;;;;;;;;;;;;;;;16.23;100.00;99422.28;5031203;28;20015;-81
2023/04/30 03:47:28;;;;;;;;;;;;;;;16.24;100.00;99421.25;5041005;28;19922;-81
2023/04/30 03:49:54;;;;;;;;;;;;;;;16.26;100.00;99424.56;5041890;28;20023;-81
2023/04/30 03:52:21;;;;;;;;;;;;;;;16.27;100.00;99410.22;5023218;28;20026;-81
2023/04/30 03:54:47;;;;;;;;;;;;;;;16.23;100.00;99408.97;5025926;28;19927;-81
2023/04/30 03:57:12;;;;;;;;;;;;;;;16.22;100.00;99407.28;5041629;28;19920;-80
2023/04/30 03:59:38;;;;;;;;;;;;;;;16.20;100.00;99419.97;5008779;28;20004;-81
2023/04/30 04:02:05;;;;;;;;;;;;;;;16.17;100.00;99415.84;5042303;28;20389;-81
2023/04/30 04:04:30;;;;;;;;;;;;;;;16.18;100.00;99422.00;5022945;28;19987;-80
2023/04/30 04:06:57;;;;;;;;;;;;;;;16.20;100.00;99425.31;5025158;28;19921;-80
2023/04/30 04:09:22;;;;;;;;;;;;;;;16.20;100.00;99431.44;5026505;28;19967;-81
2023/04/30 04:11:47;;;;;;;;;;;;;;;16.18;100.00;99422.00;5042392;28;19921;-80
2023/04/30 04:14:13;;;;;;;;;;;;;;;16.18;100.00;99424.66;5025554;28;19920;-80
2023/04/30 04:16:38;;;;;;;;;;;;;;;16.19;100.00;99429.81;5042472;28;19947;-79
2023/04/30 04:19:03;;;;;;;;;;;;;;;16.17;100.00;99436.31;5038923;28;19928;-81
2023/04/30 04:21:30;;;;;;;;;;;;;;;16.17;100.00;99436.31;5026014;28;19932;-80
2023/04/30 04:23:56;;;;;;;;;;;;;;;16.17;100.00;99430.97;5019904;28;19982;-80
2023/04/30 04:26:23;;;;;;;;;;;;;;;16.20;100.00;99435.97;5029635;28;19925;-81
2023/04/30 04:28:48;;;;;;;;;;;;;;;16.21;100.00;99432.25;5043309;28;19921;-80
2023/04/30 04:31:14;;;;;;;;;;;;;;;16.23;100.00;99424.94;5042451;28;20242;-80
2023/04/30 04:33:40;;;;;;;;;;;;;;;16.24;100.00;99426.59;5042806;28;19944;-80
2023/04/30 04:36:05;;;;;;;;;;;;;;;16.27;100.00;99426.22;5043425;28;20329;-80
2023/04/30 04:38:31;;;;;;;;;;;;;;;16.30;100.00;99425.84;5022490;28;20438;-80
2023/04/30 04:40:56;;;;;;;;;;;;;;;16.32;100.00;99434.47;5025832;28;20000;-81
2023/04/30 04:43:22;;;;;;;;;;;;;;;16.33;100.00;99425.47;5036437;28;19981;-81
2023/04/30 04:45:47;;;;;;;;;;;;;;;16.31;100.00;99422.19;5045703;28;19921;-81
2023/04/30 04:48:14;;;;;;;;;;;;;;;16.34;100.00;99430.63;5028576;28;19921;-80
2023/04/30 04:50:39;;;;;;;;;;;;;;;16.37;100.00;99437.44;5024167;28;19920;-82
2023/04/30 04:53:05;;;;;;;;;;;;;;;16.40;100.00;99439.72;5051202;28;19920;-83
2023/04/30 04:55:30;;;;;;;;;;;;;;;16.37;100.00;99437.44;5052869;28;20023;-81
2023/04/30 04:57:56;;;;;;;;;;;;;;;16.39;100.00;99440.72;5036030;28;20308;-81
2023/04/30 05:00:22;;;;;;;;;;;;;;;16.41;100.00;99433.41;5026641;28;20389;-80
2023/04/30 05:02:47;;;;;;;;;;;;;;;16.44;100.00;99442.84;5021153;28;19929;-91
2023/04/30 05:05:13;;;;;;;;;;;;;;;16.44;100.00;99449.00;5042106;28;19920;-93
2023/04/30 05:07:38;;;;;;;;;;;;;;;16.47;100.00;99447.81;5046681;28;19929;-91
2023/04/30 05:10:04;;;;;;;;;;;;;;;16.49;100.00;99454.63;5047436;28;19927;-93
2023/04/30 05:12:29;;;;;;;;;;;;;;;16.52;100.00;99454.25;5042911;28;19963;-92
2023/04/30 05:14:55;;;;;;;;;;;;;;;16.54;100.00;99460.22;5040196;28;19925;-94
2023/04/30 05:17:20;;;;;;;;;;;;;;;16.52;100.00;99467.56;5049974;28;19936;-87
2023/04/30 05:19:47;;;;;;;;;;;;;;;16.57;100.00;99469.66;5055744;28;19932;-92
2023/04/30 05:22:13;;;;;;;;;;;;;;;16.59;100.00;99468.53;5052331;28;19917;-90
2023/04/30 05:24:38;;;;;;;;;;;;;;;16.62;100.00;99461.97;5045761;28;19928;-93
2023/04/30 05:27:04;;;;;;;;;;;;;;;16.63;100.00;99469.81;5023187;28;19921;-94
2023/04/30 05:29:30;;;;;;;;;;;;;;;16.67;100.00;99476.41;5044578;28;19931;-92
2023/04/30 05:31:55;;;;;;;;;;;;;;;16.66;100.00;99474.78;5041279;28;19975;-91
2023/04/30 05:34:21;;;;;;;;;;;;;;;16.66;100.00;99479.28;5028600;28;20321;-91
2023/04/30 05:36:46;;;;;;;;;;;;;;;16.68;100.00;99477.22;5038167;28;19932;-90
2023/04/30 05:39:11;;;;;;;;;;;;;;;16.70;100.00;99481.38;5037421;28;19921;-93
2023/04/30 05:41:37;;;;;;;;;;;;;;;16.73;100.00;99481.00;5026487;28;20110;-95
2023/04/30 05:44:03;;;;;;;;;;;;;;;16.75;100.00;99478.16;5014288;28;19951;-89
2023/04/30 05:46:29;;;;;;;;;;;;;;;16.71;100.00;99480.38;5041183;28;19944;-89
2023/04/30 05:48:54;;;;;;;;;;;;;;;16.72;100.00;99479.38;5040639;28;20373;-94
2023/04/30 05:51:20;;;;;;;;;;;;;;;16.73;100.00;99486.34;5041896;28;20028;-91
2023/04/30 05:53:45;;;;;;;;;;;;;;;16.74;100.00;99477.34;5040417;28;19921;-90
2023/04/30 05:56:11;;;;;;;;;;;;;;;16.78;100.00;99477.81;5044665;28;19966;-89
2023/04/30 05:58:37;;;;;;;;;;;;;;;16.81;100.00;99476.59;5042980;28;19921;-92
2023/04/30 06:01:04;;;;;;;;;;;;;;;16.85;100.00;99483.22;5036388;28;19924;-88
2023/04/30 06:03:29;;;;;;;;;;;;;;;16.88;100.00;99474.84;5042803;28;20002;-86
2023/04/30 06:05:55;;;;;;;;;;;;;;;16.93;100.00;99475.13;5036860;28;19928;-87
2023/04/30 06:08:20;;;;;;;;;;;;;;;16.92;100.00;99478.78;5042073;28;20058;-87
2023/04/30 06:10:45;;;;;;;;;;;;;;;16.93;100.00;99480.44;5039500;28;19921;-87
2023/04/30 06:13:11;;;;;;;;;;;;;;;16.93;100.00;99475.13;5040395;28;19925;-90
2023/04/30 06:15:37;;;;;;;;;;;;;;;16.92;100.00;99473.47;5038602;28;19921;-92
2023/04/30 06:18:02;;;;;;;;;;;;;;;16.97;100.00;99471.06;5039925;28;19952;-90
2023/04/30 06:20:27;;;;;;;;;;;;;;;16.99;100.00;99474.38;5040576;28;19936;-89
2023/04/30 06:22:53;;;;;;;;;;;;;;;16.98;100.00;99472.72;5039698;28;20012;-89
2023/04/30 06:25:19;;;;;;;;;;;;;;;17.04;100.00;99471.97;5039481;28;20010;-89
2023/04/30 06:27:45;;;;;;;;;;;;;;;17.05;100.00;99478.97;5042079;28;19921;-90
2023/04/30 06:30:10;;;;;;;;;;;;;;;17.09;100.00;99474.91;5045906;28;19955;-89
2023/04/30 06:32:36;;;;;;;;;;;;;;;17.13;100.00;99481.53;5038360;28;20289;-93
2023/04/30 06:35:01;;;;;;;;;;;;;;;17.17;100.00;99477.47;5042310;28;19932;-86
2023/04/30 06:37:26;;;;;;;;;;;;;;;17.14;100.00;99477.88;5043882;28;19975;-89
2023/04/30 06:39:52;;;;;;;;;;;;;;;17.16;100.00;99473.16;5037315;28;19921;-93
2023/04/30 06:42:17;;;;;;;;;;;;;;;17.20;100.00;99477.09;5037805;28;20377;-87
2023/04/30 06:44:42;;;;;;;;;;;;;;;17.21;100.00;99484.09;5039802;28;19921;-87
2023/04/30 06:47:08;;;;;;;;;;;;;;;17.27;100.00;99478.00;5038823;28;19991;-85
2023/04/30 06:49:33;;;;;;;;;;;;;;;17.31;100.00;99478.47;5026069;28;20023;-84
2023/04/30 06:51:58;;;;;;;;;;;;;;;17.38;100.00;99476.69;5040091;28;20149;-85
2023/04/30 06:54:25;;;;;;;;;;;;;;;17.42;100.00;99481.47;5019169;28;19921;-85
2023/04/30 06:56:51;;;;;;;;;;;;;;;17.43;100.00;99483.13;5041395;28;20292;-85
2023/04/30 06:59:16;;;;;;;;;;;;;;;17.47;100.00;99479.06;5038494;28;19920;-85
2023/04/30 07:01:42;;;;;;;;;;;;;;;17.47;100.00;99479.06;5037737;28;19970;-87
2023/04/30 07:04:07;;;;;;;;;;;;;;;17.45;100.00;99486.41;5037858;28;19936;-88
2023/04/30 07:06:32;;;;;;;;;;;;;;;17.40;100.00;99494.16;5041683;28;19921;-88
2023/04/30 07:08:58;;;;;;;;;;;;;;;17.40;100.00;99483.50;5040536;28;19932;-86
2023/04/30 07:11:23;;;;;;;;;;;;;;;17.47;100.00;99484.41;5038039;28;19921;-88
2023/04/30 07:13:48;;;;;;;;;;;;;;;17.48;100.00;99494.06;5038267;28;19920;-84
2023/04/30 07:16:15;;;;;;;;;;;;;;;17.52;100.00;99487.31;5039193;28;19929;-90
2023/04/30 07:18:41;;;;;;;;;;;;;;;17.51;100.00;99496.34;5043346;28;19968;-90
2023/04/30 07:21:07;;;;;;;;;;;;;;;17.56;100.00;99498.44;5030882;28;19925;-90
2023/04/30 07:23:33;;;;;;;;;;;;;;;17.61;100.00;99500.59;5045857;28;19952;-89
2023/04/30 07:25:58;;;;;;;;;;;;;;;17.72;100.00;99497.41;5028372;28;20028;-86
2023/04/30 07:28:23;;;;;;;;;;;;;;;17.75;100.00;99499.69;5044804;28;19921;-85
2023/04/30 07:30:49;;;;;;;;;;;;;;;17.79;100.00;99503.66;5048087;28;19928;-84
2023/04/30 07:33:14;;;;;;;;;;;;;;;17.83;100.00;99500.41;5041751;28;19966;-86
2023/04/30 07:35:40;;;;;;;;;;;;;;;17.83;100.00;99504.91;5043156;28;19975;-86
2023/04/30 07:38:05;;;;;;;;;;;;;;;17.85;100.00;99502.88;5046430;28;20067;-88
2023/04/30 07:40:31;;;;;;;;;;;;;;;17.93;100.00;99500.09;5040284;28;19925;-83
2023/04/30 07:42:56;;;;;;;;;;;;;;;17.88;100.00;99502.50;5037893;28;19932;-85
2023/04/30 07:45:22;;;;;;;;;;;;;;;17.80;100.00;99510.63;5043755;28;20450;-85
2023/04/30 07:47:47;;;;;;;;;;;;;;;17.73;100.00;99509.75;5044047;28;19967;-85
2023/04/30 07:50:13;;;;;;;;;;;;;;;17.78;100.00;99507.34;5035458;28;20769;-86
2023/04/30 07:52:39;;;;;;;;;;;;;;;17.79;100.00;99501.00;5041773;28;20327;-86
2023/04/30 07:55:05;;;;;;;;;;;;;;;17.83;100.00;99511.09;5044887;28;19962;-85
2023/04/30 07:57:30;;;;;;;;;;;;;;;17.90;100.00;99511.16;5043278;28;19963;-86
2023/04/30 07:59:56;;;;;;;;;;;;;;;17.95;100.00;99514.06;5046585;28;19980;-85
2023/04/30 08:02:21;;;;;;;;;;;;;;;18.02;100.00;99520.31;5043591;28;19969;-83
2023/04/30 08:04:47;;;;;;;;;;;;;;;18.16;100.00;99532.75;5037341;28;19925;-80
2023/04/30 08:07:14;;;;;;;;;;;;;;;18.23;100.00;99528.28;5044768;28;19921;-84
2023/04/30 08:09:40;;;;;;;;;;;;;;;18.14;100.00;99539.31;5027776;28;19921;-83
2023/04/30 08:12:06;;;;;;;;;;;;;;;18.14;100.00;99534.81;5044136;28;20020;-84
2023/04/30 08:14:31;;;;;;;;;;;;;;;18.21;100.00;99541.00;5040335;28;19992;-83
2023/04/30 08:16:58;;;;;;;;;;;;;;;18.32;100.00;99537.81;5044849;28;19921;-84
2023/04/30 08:19:23;;;;;;;;;;;;;;;18.38;100.00;99537.03;5054943;28;19944;-88
2023/04/30 08:21:49;;;;;;;;;;;;;;;18.41;100.00;99544.69;4683063;28;10000121;-87
2023/04/30 08:24:14;;;;;;;;;;;;;;;18.53;100.00;99544.16;5031313;28;19925;-86
2023/04/30 08:26:39;;;;;;;;;;;;;;;18.64;100.00;99540.97;5039747;28;19922;-85
2023/04/30 08:29:07;;;;;;;;;;;;;;;18.68;100.00;99552.91;5038468;28;20368;-84
2023/04/30 08:31:32;;;;;;;;;;;;;;;18.62;100.00;99553.69;5039425;28;19969;-86
2023/04/30 08:33:58;;;;;;;;;;;;;;;18.57;100.00;99558.78;5041123;28;19979;-87
2023/04/30 08:36:23;;;;;;;;;;;;;;;18.61;100.00;99560.09;5035488;28;20272;-88
2023/04/30 08:38:48;;;;;;;;;;;;;;;18.72;100.00;99564.91;5037584;28;19921;-84
2023/04/30 08:41:14;;;;;;;;;;;;;;;18.70;100.00;99567.75;4693134;28;10000265;-84
2023/04/30 08:43:41;;;;;;;;;;;;;;;18.73;100.00;99562.00;5033647;28;20289;-83
2023/04/30 08:46:06;;;;;;;;;;;;;;;18.73;100.00;99558.53;5040205;28;19925;-83
2023/04/30 08:48:32;;;;;;;;;;;;;;;18.80;100.00;99559.38;5039533;28;20295;-85
2023/04/30 08:51:01;;;;;;;;;;;;;;;18.80;100.00;99562.06;5038686;28;19979;-90
2023/04/30 08:53:26;;;;;;;;;;;;;;;18.93;100.00;99567.50;5038434;28;20422;-89
2023/04/30 08:55:51;;;;;;;;;;;;;;;19.03;100.00;99562.59;5037587;28;20019;-80
2023/04/30 08:58:18;;;;;;;;;;;;;;;19.01;100.00;99558.50;5041332;28;20342;-83
2023/04/30 09:00:44;;;;;;;;;;;;;;;18.85;100.00;99574.84;5039656;28;20385;-83
2023/04/30 09:03:09;;;;;;;;;;;;;;;18.81;100.00;99563.72;5039394;28;19927;-85
2023/04/30 09:05:36;;;;;;;;;;;;;;;18.81;100.00;99577.06;5040839;28;19921;-84
2023/04/30 09:08:01;;;;;;;;;;;;;;;18.72;100.00;99571.06;5041756;28;20308;-84
2023/04/30 09:10:26;;;;;;;;;;;;;;;18.76;100.00;99572.31;5040774;28;19920;-84
2023/04/30 09:12:58;;;;;;;;;;;;;;;18.83;100.00;99576.88;5038725;28;20377;-84
2023/04/30 09:15:24;;;;;;;;;;;;;;;18.86;100.00;99582.66;5039076;28;20319;-85
2023/04/30 09:17:50;;;;;;;;;;;;;;;18.82;100.00;99570.72;5037577;28;19921;-84
2023/04/30 09:20:17;;;;;;;;;;;;;;;18.89;100.00;99565.41;5020822;28;19921;-85
2023/04/30 09:22:42;;;;;;;;;;;;;;;18.96;100.00;99567.13;5028181;28;19936;-82
2023/04/30 09:25:08;;;;;;;;;;;;;;;19.08;100.00;99573.56;5042185;28;19920;-84
2023/04/30 09:27:33;;;;;;;;;;;;;;;19.14;100.00;99567.41;5040211;28;19929;-84
2023/04/30 09:29:59;;;;;;;;;;;;;;;19.03;100.00;99581.31;5042456;28;19921;-85
2023/04/30 09:32:25;;;;;;;;;;;;;;;19.05;100.00;99576.63;5029738;28;19921;-85
2023/04/30 09:34:50;;;;;;;;;;;;;;;19.12;100.00;99574.81;5038468;28;19921;-85
2023/04/30 09:37:16;;;;;;;;;;;;;;;19.06;100.00;99578.28;5038300;28;19921;-76
2023/04/30 09:39:52;;;;;;;;;;;;;;;19.07;100.00;99573.75;5038284;28;20385;-80
2023/04/30 09:42:18;;;;;;;;;;;;;;;19.02;100.00;99579.72;5041822;28;19947;-78
2023/04/30 09:44:44;;;;;;;;;;;;;;;19.06;100.00;99577.44;5039017;28;19921;-78
2023/04/30 09:47:15;;;;;;;;;;;;;;;19.10;100.00;99574.19;5039228;28;19922;-81
2023/04/30 09:49:41;;;;;;;;;;;;;;;19.15;100.00;99574.41;5039333;28;19927;-81
2023/04/30 09:52:07;;;;;;;;;;;;;;;19.18;100.00;99579.38;5039119;28;20273;-81
2023/04/30 09:54:32;;;;;;;;;;;;;;;19.26;100.00;99573.06;5040571;28;19927;-79
2023/04/30 09:56:58;;;;;;;;;;;;;;;19.27;100.00;99579.19;5036977;28;19998;-79
2023/04/30 09:59:31;;;;;;;;;;;;;;;19.22;100.00;99572.59;5038350;28;20442;-80
2023/04/30 10:02:03;;;;;;;;;;;;;;;19.26;100.00;99577.56;5038609;28;19964;-80
2023/04/30 10:04:36;;;;;;;;;;;;;;;19.21;100.00;99573.63;5041357;28;19928;-81
2023/04/30 10:07:04;;;;;;;;;;;;;;;19.18;100.00;99571.34;5037775;28;19925;-81
2023/04/30 10:09:35;;;;;;;;;;;;;;;19.17;100.00;99564.34;5041768;28;20402;-79
2023/04/30 10:12:02;;;;;;;;;;;;;;;19.21;100.00;99570.94;5036191;28;20276;-79
2023/04/30 10:14:29;;;;;;;;;;;;;;;19.26;100.00;99566.88;5039562;28;20433;-80
2023/04/30 10:17:01;;;;;;;;;;;;;;;19.26;100.00;99561.53;5043863;28;19982;-80
2023/04/30 10:19:29;;;;;;;;;;;;;;;19.27;100.00;99558.63;5037563;28;20025;-79
2023/04/30 10:21:55;;;;;;;;;;;;;;;19.35;100.00;99558.47;5040561;28;19967;-83
2023/04/30 10:24:21;;;;;;;;;;;;;;;19.35;100.00;99554.97;5022379;28;19921;-80
2023/04/30 10:26:47;;;;;;;;;;;;;;;19.47;100.00;99553.41;5039515;28;20369;-80
2023/04/30 10:29:14;;;;;;;;;;;;;;;19.47;100.00;99553.41;5038622;28;19920;-79
2023/04/30 10:31:47;;;;;;;;;;;;;;;19.40;100.00;99557.88;5019392;28;19943;-77
2023/04/30 10:34:16;;;;;;;;;;;;;;;19.36;100.00;99549.41;5033770;28;19917;-77
2023/04/30 10:36:44;;;;;;;;;;;;;;;19.44;100.00;99551.09;5039040;28;20083;-77
2023/04/30 10:39:10;;;;;;;;;;;;;;;19.52;100.00;99541.06;5041250;28;20324;-79
2023/04/30 10:41:36;;;;;;;;;;;;;;;19.61;100.00;99539.84;5029464;28;19939;-76
2023/04/30 10:44:01;;;;;;;;;;;;;;;19.72;100.00;99541.16;5039887;28;19925;-77
2023/04/30 10:46:27;;;;;;;;;;;;;;;19.84;100.00;99542.22;5038850;28;19962;-76
2023/04/30 10:48:56;;;;;;;;;;;;;;;19.94;100.00;99539.13;4334150;28;10000716;-76
2023/04/30 10:51:22;;;;;;;;;;;;;;;19.95;100.00;99541.59;5036409;28;19925;-77
2023/04/30 10:53:49;;;;;;;;;;;;;;;19.99;100.00;99542.84;5038343;28;19925;-76
2023/04/30 10:56:27;;;;;;;;;;;;;;;19.96;99.33;99543.25;5037363;28;20027;-78
2023/04/30 10:58:53;;;;;;;;;;;;;;;19.97;99.96;99534.16;5018079;28;19939;-77
2023/04/30 11:01:19;;;;;;;;;;;;;;;20.00;100.00;99528.44;5037495;28;20032;-77
2023/04/30 11:04:04;;;;;;;;;;;;;;;19.98;100.00;99535.00;5043342;28;20317;-77
2023/04/30 11:06:48;;;;;;;;;;;;;;;19.87;99.77;99527.56;5032395;28;19925;-78
2023/04/30 11:09:13;;;;;;;;;;;;;;;19.71;100.00;99527.94;5023595;28;20447;-77
2023/04/30 11:11:38;;;;;;;;;;;;;;;19.71;100.00;99533.31;5038832;28;19925;-77
2023/04/30 11:14:04;;;;;;;;;;;;;;;19.72;100.00;99527.75;5041999;28;19944;-77
2023/04/30 11:16:30;;;;;;;;;;;;;;;19.64;100.00;99533.28;5044327;28;20015;-77
2023/04/30 11:19:04;;;;;;;;;;;;;;;19.69;100.00;99525.47;5040469;28;19920;-77
2023/04/30 11:21:30;;;;;;;;;;;;;;;19.78;100.00;99528.78;5039572;28;19943;-77
2023/04/30 11:24:02;;;;;;;;;;;;;;;19.72;100.00;99525.09;5037882;28;19925;-78
2023/04/30 11:26:28;;;;;;;;;;;;;;;19.73;100.00;99526.72;5034636;28;19924;-78
2023/04/30 11:28:54;;;;;;;;;;;;;;;19.78;100.00;99518.91;5014609;28;19968;-77
2023/04/30 11:31:19;;;;;;;;;;;;;;;19.89;100.00;99515.63;5037421;28;19944;-77
2023/04/30 11:33:45;;;;;;;;;;;;;;;19.91;100.00;99518.91;5034511;28;19921;-78
2023/04/30 11:36:13;;;;;;;;;;;;;;;19.86;100.00;99509.84;5032829;28;19925;-78
2023/04/30 11:38:39;;;;;;;;;;;;;;;19.81;100.00;99506.97;5029497;28;19944;-77
2023/04/30 11:41:05;;;;;;;;;;;;;;;19.80;100.00;99516.00;5030834;28;20703;-77
2023/04/30 11:43:31;;;;;;;;;;;;;;;19.78;100.00;99505.53;5034509;28;19921;-78
2023/04/30 11:46:00;;;;;;;;;;;;;;;19.79;100.00;99504.47;5027222;28;20012;-77
2023/04/30 11:48:34;;;;;;;;;;;;;;;19.76;100.00;99504.91;5037380;28;19921;-77
2023/04/30 11:51:02;;;;;;;;;;;;;;;19.71;100.00;99507.38;5037483;28;19943;-76
2023/04/30 11:53:28;;;;;;;;;;;;;;;19.61;100.00;99499.69;5034225;28;19925;-77
2023/04/30 11:55:54;;;;;;;;;;;;;;;19.57;100.00;99501.13;5036786;28;19931;-78
2023/04/30 11:58:20;;;;;;;;;;;;;;;19.53;100.00;99499.06;5039539;28;19959;-77
2023/04/30 12:00:46;;;;;;;;;;;;;;;19.52;100.00;99492.91;5036768;28;20381;-77
2023/04/30 12:03:13;;;;;;;;;;;;;;;19.58;100.00;99496.63;5029716;28;19929;-77
2023/04/30 12:05:39;;;;;;;;;;;;;;;19.69;100.00;99498.69;5033203;28;19925;-77
2023/04/30 12:08:06;;;;;;;;;;;;;;;19.82;100.00;99493.38;4667145;28;9999722;-78
2023/04/30 12:10:32;;;;;;;;;;;;;;;19.92;100.00;99493.78;5034622;28;20027;-78
2023/04/30 12:12:57;;;;;;;;;;;;;;;19.94;100.00;99491.75;5033095;28;20441;-77
2023/04/30 12:15:25;;;;;;;;;;;;;;;20.08;100.00;99484.56;5042053;28;19997;-78
2023/04/30 12:17:51;;;;;;;;;;;;;;;20.10;100.00;99481.66;5039953;28;19921;-78
2023/04/30 12:20:17;;;;;;;;;;;;;;;20.14;100.00;99488.25;5039614;28;20384;-77
2023/04/30 12:22:43;;;;;;;;;;;;;;;20.20;100.00;99484.75;5041996;28;19956;-78
2023/04/30 12:25:16;;;;;;;;;;;;;;;20.27;100.00;99485.56;5039335;28;19928;-78
2023/04/30 12:27:46;;;;;;;;;;;;;;;20.23;100.00;99489.69;5041873;28;20399;-76
2023/04/30 12:30:18;;;;;;;;;;;;;;;20.39;100.00;99478.56;5036754;23;20016;-75
2023/04/30 12:32:44;;;;;;;;;;;;;;;20.54;100.00;99481.88;5038296;28;19925;-76